Time;durP1;ratioP1;P1;durP2;ratioP2;P2;SDS_P1;SDS_P2;PMS_P1;PMS_P2;Temp;Humidity;BMP_temperature;BMP_pressure;BME280_temperature;BME280_humidity;BME280_pressure;Samples;Min_cycle;Max_cycle;Signal;HPM_P1;HPM_P2
2024/03/20 00:02:05;;;;;;;1.30;1.20;;;16.00;68.80;;;;;;4884165;29;20125;-78
2024/03/20 00:04:50;;;;;;;2.55;1.30;;;16.00;68.90;;;;;;4885587;29;20040;-78
2024/03/20 00:07:35;;;;;;;2.03;1.38;;;16.00;68.90;;;;;;4900033;29;20191;-78
2024/03/20 00:10:22;;;;;;;1.77;1.50;;;16.00;69.00;;;;;;4908115;29;20103;-79
2024/03/20 00:13:06;;;;;;;1.05;0.95;;;16.00;69.10;;;;;;4909354;29;20443;-83
2024/03/20 00:15:52;;;;;;;2.13;1.20;;;16.00;69.10;;;;;;4894395;29;20055;-78
2024/03/20 00:18:37;;;;;;;1.50;1.40;;;15.90;69.60;;;;;;4913927;29;20051;-83
2024/03/20 00:21:22;;;;;;;2.80;1.75;;;15.90;69.10;;;;;;4903995;29;20079;-77
2024/03/20 00:24:07;;;;;;;1.67;1.30;;;15.90;69.20;;;;;;4882290;29;20071;-81
2024/03/20 00:26:52;;;;;;;1.50;1.40;;;15.90;69.20;;;;;;4894804;29;20104;-83
2024/03/20 00:29:39;;;;;;;2.15;1.48;;;15.90;69.20;;;;;;4884171;29;20047;-81
2024/03/20 00:32:24;;;;;;;1.58;1.48;;;15.90;69.30;;;;;;4894500;29;20047;-80
2024/03/20 00:35:09;;;;;;;1.40;1.30;;;15.90;69.30;;;;;;4893219;29;20439;-78
2024/03/20 00:37:54;;;;;;;3.03;1.60;;;15.80;69.30;;;;;;4890914;29;20047;-79
2024/03/20 00:40:38;;;;;;;1.60;1.42;;;15.80;69.30;;;;;;4896679;29;20539;-77
2024/03/20 00:43:24;;;;;;;2.90;1.40;;;15.80;69.30;;;;;;4906078;28;20047;-81
2024/03/20 00:46:11;;;;;;;2.67;1.48;;;15.80;69.30;;;;;;4904252;29;20092;-81
2024/03/20 00:48:57;;;;;;;2.67;1.52;;;15.80;69.40;;;;;;4901777;29;20046;-86
2024/03/20 00:51:41;;;;;;;2.03;1.83;;;15.80;69.40;;;;;;4899487;29;20051;-80
2024/03/20 00:54:26;;;;;;;2.75;1.23;;;15.80;69.50;;;;;;4897752;29;20103;-78
2024/03/20 00:57:12;;;;;;;1.70;1.20;;;15.70;69.30;;;;;;4911885;29;20067;-77
2024/03/20 00:59:57;;;;;;;3.08;1.90;;;15.70;69.40;;;;;;4879726;29;20123;-79
2024/03/20 01:02:42;;;;;;;3.13;1.50;;;15.70;69.40;;;;;;4884842;29;20163;-78
2024/03/20 01:05:27;;;;;;;1.95;1.80;;;15.80;69.70;;;;;;4901833;29;20119;-77
2024/03/20 01:08:12;;;;;;;1.45;1.20;;;15.70;69.50;;;;;;4893568;29;20168;-82
2024/03/20 01:10:56;;;;;;;2.65;1.70;;;15.70;69.60;;;;;;4898797;29;20566;-78
2024/03/20 01:13:41;;;;;;;1.42;1.30;;;15.70;69.60;;;;;;4905280;29;20061;-79
2024/03/20 01:16:28;;;;;;;2.85;1.40;;;15.70;69.60;;;;;;4880269;29;20068;-79
2024/03/20 01:19:12;;;;;;;3.65;1.48;;;15.60;69.50;;;;;;4885068;29;20708;-78
2024/03/20 01:21:56;;;;;;;2.78;1.60;;;15.60;69.50;;;;;;4882564;29;20040;-80
2024/03/20 01:24:42;;;;;;;2.70;1.65;;;15.60;69.50;;;;;;4884339;29;20178;-84
2024/03/20 01:27:30;;;;;;;3.63;1.50;;;15.60;69.60;;;;;;4889897;29;20068;-80
2024/03/20 01:30:15;;;;;;;4.38;2.20;;;15.60;69.70;;;;;;4903795;29;20754;-79
2024/03/20 01:33:00;;;;;;;5.30;1.85;;;15.60;69.70;;;;;;4898364;29;20051;-81
2024/03/20 01:35:45;;;;;;;5.35;1.58;;;15.60;69.80;;;;;;4882989;29;20043;-78
2024/03/20 01:38:30;;;;;;;3.38;1.63;;;15.60;69.80;;;;;;4886339;29;20063;-78
2024/03/20 01:41:15;;;;;;;3.03;1.75;;;15.50;69.70;;;;;;4876132;29;20052;-78
2024/03/20 01:44:00;;;;;;;4.50;1.75;;;15.50;69.70;;;;;;4884944;29;20044;-78
2024/03/20 01:46:44;;;;;;;2.20;1.10;;;15.50;69.80;;;;;;4884836;29;20569;-78
2024/03/20 01:49:30;;;;;;;2.95;1.60;;;15.50;69.80;;;;;;4890757;29;20587;-78
2024/03/20 01:52:18;;;;;;;3.10;1.38;;;15.50;69.90;;;;;;4887838;29;20136;-78
2024/03/20 01:55:03;;;;;;;4.53;2.22;;;15.50;69.90;;;;;;4878369;29;20104;-78
2024/03/20 01:57:49;;;;;;;4.22;1.13;;;15.50;70.00;;;;;;4888061;29;20071;-78
2024/03/20 02:00:33;;;;;;;1.88;1.10;;;15.50;70.00;;;;;;4898977;29;20039;-79
2024/03/20 02:03:19;;;;;;;2.55;1.83;;;15.40;69.90;;;;;;4883358;29;20055;-78
2024/03/20 02:06:04;;;;;;;2.35;1.38;;;15.40;69.90;;;;;;4895783;29;20550;-78
2024/03/20 02:08:50;;;;;;;3.25;1.10;;;15.40;70.00;;;;;;4881156;29;20048;-80
2024/03/20 02:11:35;;;;;;;2.85;1.10;;;15.40;70.00;;;;;;4887948;29;20550;-81
2024/03/20 02:14:20;;;;;;;5.50;1.75;;;15.40;70.00;;;;;;4878994;29;20047;-79
2024/03/20 02:17:05;;;;;;;2.40;1.20;;;15.40;70.00;;;;;;4902287;29;20199;-78
2024/03/20 02:19:49;;;;;;;2.17;1.10;;;15.40;70.10;;;;;;4887529;29;20284;-79
2024/03/20 02:22:41;;;;;;;3.42;1.10;;;15.40;70.10;;;;;;4886013;29;20092;-86
2024/03/20 02:25:30;;;;;;;2.75;1.13;;;15.40;70.20;;;;;;4891047;29;20422;-81
2024/03/20 02:28:15;;;;;;;3.63;1.30;;;15.40;70.10;;;;;;4892292;29;20569;-78
2024/03/20 02:31:04;;;;;;;1.88;1.20;;;15.30;70.00;;;;;;4885859;29;20115;-80
2024/03/20 02:33:49;;;;;;;3.67;2.05;;;15.30;70.00;;;;;;4897424;29;20064;-79
2024/03/20 02:36:35;;;;;;;2.85;1.20;;;15.30;70.00;;;;;;4875530;29;20055;-78
2024/03/20 02:39:21;;;;;;;1.98;1.05;;;15.30;70.10;;;;;;4900450;29;20345;-78
2024/03/20 02:42:06;;;;;;;2.45;1.05;;;15.30;70.10;;;;;;4892507;29;20054;-79
2024/03/20 02:44:53;;;;;;;1.52;1.05;;;15.30;70.10;;;;;;4881094;29;20100;-79
2024/03/20 02:47:39;;;;;;;2.97;1.00;;;15.20;70.00;;;;;;4905656;29;20447;-78
2024/03/20 02:50:24;;;;;;;1.23;0.77;;;15.20;70.00;;;;;;4895079;29;20148;-79
2024/03/20 02:53:09;;;;;;;2.33;1.20;;;15.20;70.10;;;;;;4897522;29;20052;-80
2024/03/20 02:55:55;;;;;;;2.55;1.05;;;15.20;70.10;;;;;;4917920;29;20096;-80
2024/03/20 02:58:40;;;;;;;3.05;1.30;;;15.20;70.10;;;;;;4924567;29;20055;-80
2024/03/20 03:01:24;;;;;;;3.53;1.60;;;15.10;70.00;;;;;;4908893;29;20345;-79
2024/03/20 03:04:09;;;;;;;2.95;1.23;;;15.10;70.00;;;;;;4920543;29;20060;-80
2024/03/20 03:06:54;;;;;;;1.73;1.30;;;15.10;70.00;;;;;;4919303;29;20069;-86
2024/03/20 03:09:40;;;;;;;1.45;1.05;;;15.00;69.90;;;;;;4931314;29;20035;-82
2024/03/20 03:12:25;;;;;;;2.13;1.20;;;15.00;69.90;;;;;;4927405;29;20076;-80
2024/03/20 03:15:10;;;;;;;3.58;1.30;;;15.00;70.00;;;;;;4923283;29;20550;-80
2024/03/20 03:17:55;;;;;;;2.00;1.80;;;14.90;69.90;;;;;;4892294;29;20290;-80
2024/03/20 03:20:43;;;;;;;3.58;1.10;;;14.90;69.90;;;;;;4912326;29;20044;-79
2024/03/20 03:23:27;;;;;;;3.75;1.35;;;14.90;70.00;;;;;;4884664;29;20069;-79
2024/03/20 03:26:12;;;;;;;2.50;0.82;;;14.90;70.00;;;;;;4891034;29;20225;-79
2024/03/20 03:28:57;;;;;;;3.65;1.23;;;14.90;70.10;;;;;;4893504;29;20052;-79
2024/03/20 03:31:43;;;;;;;2.30;1.63;;;14.80;70.00;;;;;;4899595;29;20191;-78
2024/03/20 03:34:27;;;;;;;2.28;1.55;;;14.80;70.00;;;;;;4883120;29;20087;-79
2024/03/20 03:37:12;;;;;;;2.72;1.02;;;14.80;70.10;;;;;;4891524;29;20459;-77
2024/03/20 03:39:57;;;;;;;2.63;0.90;;;14.80;70.20;;;;;;4900305;29;20043;-79
2024/03/20 03:42:41;;;;;;;2.45;1.10;;;14.80;70.70;;;;;;4906458;29;20113;-78
2024/03/20 03:45:26;;;;;;;2.88;1.20;;;14.80;70.30;;;;;;4898401;29;20048;-80
2024/03/20 03:48:11;;;;;;;1.33;1.23;;;14.70;70.20;;;;;;4896921;29;20048;-79
2024/03/20 03:50:56;;;;;;;1.52;1.00;;;14.70;70.20;;;;;;4898233;29;20048;-81
2024/03/20 03:53:41;;;;;;;2.08;1.17;;;14.70;70.30;;;;;;4922238;29;20048;-80
2024/03/20 03:56:25;;;;;;;3.05;1.17;;;14.70;70.30;;;;;;4915812;29;20039;-84
2024/03/20 03:59:10;;;;;;;1.13;1.08;;;14.70;70.40;;;;;;4912117;29;20127;-82
2024/03/20 04:01:58;;;;;;;1.95;1.05;;;14.70;70.40;;;;;;4910182;29;20091;-80
2024/03/20 04:04:43;;;;;;;2.15;1.10;;;14.70;70.40;;;;;;4892733;29;20387;-78
2024/03/20 04:07:27;;;;;;;2.25;1.67;;;14.70;70.40;;;;;;4900080;29;20038;-77
2024/03/20 04:10:12;;;;;;;2.28;1.40;;;14.70;70.40;;;;;;4891206;29;20455;-78
2024/03/20 04:12:57;;;;;;;2.08;1.48;;;14.60;70.20;;;;;;4903372;29;20060;-78
2024/03/20 04:15:45;;;;;;;2.33;1.48;;;14.60;70.30;;;;;;4902148;29;20068;-78
2024/03/20 04:18:30;;;;;;;2.50;1.23;;;14.60;70.40;;;;;;4908432;29;20047;-78
2024/03/20 04:21:16;;;;;;;2.58;1.33;;;14.60;70.40;;;;;;4896156;29;20047;-78
2024/03/20 04:24:01;;;;;;;1.42;1.23;;;14.60;70.40;;;;;;4905187;29;20148;-79
2024/03/20 04:26:46;;;;;;;2.45;1.30;;;14.60;70.50;;;;;;4893319;29;20039;-77
2024/03/20 04:29:30;;;;;;;2.88;1.60;;;14.50;70.30;;;;;;4900634;29;20047;-77
2024/03/20 04:32:15;;;;;;;2.35;1.90;;;14.50;70.40;;;;;;4886773;29;20040;-78
2024/03/20 04:35:00;;;;;;;3.88;1.70;;;14.50;70.40;;;;;;4901190;29;20047;-79
2024/03/20 04:37:47;;;;;;;3.15;1.50;;;14.50;71.00;;;;;;4888230;29;20515;-77
2024/03/20 04:40:32;;;;;;;3.10;1.58;;;14.50;70.50;;;;;;4870982;29;20047;-78
2024/03/20 04:43:17;;;;;;;3.47;1.60;;;14.50;70.50;;;;;;4899802;29;20136;-78
2024/03/20 04:46:03;;;;;;;3.63;1.60;;;14.40;70.40;;;;;;4888090;28;20442;-78
2024/03/20 04:48:48;;;;;;;3.05;1.40;;;14.40;70.40;;;;;;4868349;29;20039;-78
2024/03/20 04:51:33;;;;;;;1.52;1.42;;;14.40;70.50;;;;;;4890910;29;20395;-78
2024/03/20 04:54:18;;;;;;;1.45;1.30;;;14.40;70.50;;;;;;4896399;29;20081;-78
2024/03/20 04:57:03;;;;;;;4.65;1.40;;;14.40;70.60;;;;;;4896100;29;20144;-78
2024/03/20 04:59:48;;;;;;;2.75;1.30;;;14.40;70.60;;;;;;4878057;29;20059;-79
2024/03/20 05:02:32;;;;;;;4.15;2.03;;;14.40;70.70;;;;;;4890632;29;20040;-78
2024/03/20 05:05:18;;;;;;;2.80;1.60;;;14.40;70.70;;;;;;4903311;29;20108;-78
2024/03/20 05:08:06;;;;;;;3.65;1.70;;;14.40;70.70;;;;;;4879031;29;20504;-79
2024/03/20 05:10:51;;;;;;;2.47;1.45;;;14.30;70.60;;;;;;4884536;29;20063;-83
2024/03/20 05:13:37;;;;;;;3.30;1.45;;;14.40;70.80;;;;;;4903057;29;20770;-85
2024/03/20 05:16:22;;;;;;;2.85;1.50;;;14.40;70.80;;;;;;4910341;29;20123;-86
2024/03/20 05:19:07;;;;;;;2.97;1.35;;;14.30;70.70;;;;;;4904097;29;20043;-78
2024/03/20 05:21:51;;;;;;;4.80;1.50;;;14.30;70.70;;;;;;4891158;29;20044;-79
2024/03/20 05:24:36;;;;;;;2.80;1.83;;;14.30;70.70;;;;;;4882131;29;20059;-79
2024/03/20 05:27:21;;;;;;;1.85;1.45;;;14.30;70.70;;;;;;4885944;29;20744;-80
2024/03/20 05:30:06;;;;;;;3.67;1.65;;;14.30;70.70;;;;;;4902256;29;20047;-84
2024/03/20 05:32:51;;;;;;;3.05;1.77;;;14.30;70.80;;;;;;4900407;29;20051;-78
2024/03/20 05:35:36;;;;;;;2.83;1.48;;;14.30;70.80;;;;;;4896688;29;20160;-79
2024/03/20 05:38:21;;;;;;;3.38;2.03;;;14.30;70.80;;;;;;4896922;29;20044;-89
2024/03/20 05:41:06;;;;;;;3.22;1.67;;;14.30;70.80;;;;;;4882894;29;20035;-85
2024/03/20 05:43:51;;;;;;;2.90;1.63;;;14.30;70.90;;;;;;4890730;29;20070;-80
2024/03/20 05:46:35;;;;;;;4.60;1.98;;;14.20;70.70;;;;;;4897379;29;20104;-77
2024/03/20 05:49:21;;;;;;;5.03;1.83;;;14.30;71.00;;;;;;4881515;29;20040;-79
2024/03/20 05:52:06;;;;;;;3.63;1.50;;;14.20;70.90;;;;;;4880488;29;20220;-79
2024/03/20 05:54:51;;;;;;;2.90;1.80;;;14.20;70.90;;;;;;4895960;29;20055;-82
2024/03/20 05:57:36;;;;;;;3.20;1.63;;;14.20;70.90;;;;;;4879071;29;20047;-80
2024/03/20 06:00:25;;;;;;;3.45;1.55;;;14.20;70.90;;;;;;4893030;29;20056;-79
2024/03/20 06:03:09;;;;;;;2.88;1.67;;;14.20;71.00;;;;;;4890145;29;20085;-79
2024/03/20 06:05:54;;;;;;;3.53;2.15;;;14.20;71.00;;;;;;4906813;29;20067;-79
2024/03/20 06:08:39;;;;;;;5.65;1.83;;;14.20;71.00;;;;;;4888471;29;20505;-78
2024/03/20 06:11:25;;;;;;;4.05;1.80;;;14.20;71.00;;;;;;4881938;29;20218;-78
2024/03/20 06:14:10;;;;;;;2.90;1.88;;;14.20;71.00;;;;;;4866377;29;20088;-78
2024/03/20 06:16:56;;;;;;;3.45;1.42;;;14.20;71.00;;;;;;4898759;29;20052;-78
2024/03/20 06:19:41;;;;;;;6.07;3.05;;;14.20;71.10;;;;;;4895841;29;20171;-78
2024/03/20 06:22:27;;;;;;;3.97;1.65;;;14.10;70.90;;;;;;4896816;29;20055;-77
2024/03/20 06:25:12;;;;;;;3.92;2.08;;;14.10;70.90;;;;;;4895165;29;20699;-78
2024/03/20 06:27:58;;;;;;;5.68;1.80;;;14.10;71.00;;;;;;4895907;29;20242;-78
2024/03/20 06:30:49;;;;;;;3.78;1.80;;;14.10;71.00;;;;;;4879962;29;20100;-80
2024/03/20 06:33:34;;;;;;;3.60;1.85;;;14.10;71.00;;;;;;4893977;29;20305;-85
2024/03/20 06:36:19;;;;;;;2.80;1.75;;;14.10;71.00;;;;;;4887899;29;20600;-80
2024/03/20 06:39:07;;;;;;;4.55;2.10;;;14.10;71.00;;;;;;4902738;29;20123;-80
2024/03/20 06:41:51;;;;;;;2.60;1.60;;;14.10;71.10;;;;;;4887496;29;20068;-78
2024/03/20 06:44:39;;;;;;;4.65;2.03;;;14.10;71.00;;;;;;4879398;29;20374;-81
2024/03/20 06:47:25;;;;;;;2.72;1.85;;;14.10;71.10;;;;;;4890467;29;20047;-78
2024/03/20 06:50:10;;;;;;;3.83;1.88;;;14.10;71.10;;;;;;4890607;29;20063;-79
2024/03/20 06:52:57;;;;;;;4.15;1.88;;;14.00;71.00;;;;;;4892131;29;20051;-80
2024/03/20 06:55:44;;;;;;;9.13;5.32;;;14.00;71.10;;;;;;4894835;29;20048;-77
2024/03/20 06:58:29;;;;;;;6.28;3.80;;;14.10;71.30;;;;;;4882791;29;20115;-79
2024/03/20 07:01:14;;;;;;;9.73;3.55;;;14.10;71.70;;;;;;4892401;29;20142;-80
2024/03/20 07:04:01;;;;;;;6.15;2.72;;;14.10;72.00;;;;;;4886394;29;20047;-83
2024/03/20 07:06:47;;;;;;;6.75;3.45;;;14.10;72.20;;;;;;4873634;29;20356;-80
2024/03/20 07:09:31;;;;;;;4.03;2.47;;;14.20;72.40;;;;;;4879147;29;20074;-79
2024/03/20 07:12:19;;;;;;;9.13;2.67;;;14.20;72.50;;;;;;4898920;29;20083;-82
2024/03/20 07:15:11;;;;;;;8.23;5.53;;;14.30;73.00;;;;;;4888313;29;20395;-79
2024/03/20 07:17:55;;;;;;;5.15;3.53;;;14.30;73.20;;;;;;4890211;29;20079;-77
2024/03/20 07:20:40;;;;;;;4.70;3.30;;;14.40;73.40;;;;;;4895073;29;20025;-81
2024/03/20 07:23:26;;;;;;;4.32;2.80;;;14.40;73.60;;;;;;4898311;29;20127;-80
2024/03/20 07:26:11;;;;;;;3.78;2.65;;;14.50;73.90;;;;;;4902192;29;20104;-85
2024/03/20 07:28:56;;;;;;;5.75;2.47;;;14.60;74.10;;;;;;4897995;29;20091;-78
2024/03/20 07:31:40;;;;;;;5.25;2.22;;;14.60;74.20;;;;;;4907283;29;20091;-80
2024/03/20 07:34:25;;;;;;;5.72;2.97;;;14.70;74.40;;;;;;4891510;29;20096;-79
2024/03/20 07:37:11;;;;;;;3.38;2.10;;;14.80;74.70;;;;;;4905691;29;20464;-81
2024/03/20 07:39:56;;;;;;;3.30;2.20;;;14.80;74.70;;;;;;4888293;29;20107;-80
2024/03/20 07:42:42;;;;;;;5.65;2.35;;;14.90;74.90;;;;;;4888217;29;20497;-77
2024/03/20 07:45:29;;;;;;;3.03;2.60;;;15.00;75.00;;;;;;4902728;29;20048;-79
2024/03/20 07:48:15;;;;;;;5.22;1.92;;;15.10;75.20;;;;;;4894696;29;20056;-79
2024/03/20 07:51:00;;;;;;;3.15;1.92;;;15.20;75.30;;;;;;4888513;29;20124;-80
2024/03/20 07:53:46;;;;;;;2.03;1.85;;;15.30;75.40;;;;;;4901881;29;20385;-81
2024/03/20 07:56:31;;;;;;;2.25;1.63;;;15.30;75.30;;;;;;4889368;29;20044;-82
2024/03/20 07:59:17;;;;;;;6.22;2.10;;;15.40;75.30;;;;;;4871885;29;20127;-80
2024/03/20 08:02:01;;;;;;;5.13;1.65;;;15.50;75.40;;;;;;4900427;29;20577;-80
2024/03/20 08:04:46;;;;;;;6.53;2.10;;;15.60;75.40;;;;;;4893984;29;20040;-86
2024/03/20 08:07:32;;;;;;;3.03;1.70;;;15.70;75.50;;;;;;4895104;29;20542;-81
2024/03/20 08:10:19;;;;;;;3.45;1.80;;;15.80;75.60;;;;;;4903896;29;20077;-79
2024/03/20 08:13:04;;;;;;;4.03;1.90;;;15.80;75.50;;;;;;4893202;29;20051;-79
2024/03/20 08:15:49;;;;;;;5.03;1.40;;;15.90;75.50;;;;;;4878284;29;20039;-80
2024/03/20 08:18:34;;;;;;;4.40;1.58;;;15.90;75.40;;;;;;4880864;29;20038;-83
2024/03/20 08:21:22;;;;;;;4.35;1.73;;;16.00;75.40;;;;;;4892124;29;20091;-80
2024/03/20 08:24:08;;;;;;;3.63;1.67;;;16.10;75.50;;;;;;4881308;29;20051;-83
2024/03/20 08:26:53;;;;;;;3.53;1.58;;;16.10;75.30;;;;;;4879050;29;20046;-79
2024/03/20 08:29:38;;;;;;;4.35;1.30;;;16.20;75.40;;;;;;4895012;29;20347;-78
2024/03/20 08:32:23;;;;;;;2.67;1.33;;;16.20;75.20;;;;;;4868251;29;20051;-84
2024/03/20 08:35:12;;;;;;;2.20;1.30;;;16.30;75.30;;;;;;4885037;29;20051;-80
2024/03/20 08:37:57;;;;;;;3.90;1.15;;;16.40;75.40;;;;;;4891761;29;20038;-83
2024/03/20 08:40:42;;;;;;;2.75;2.13;;;16.40;75.20;;;;;;4893760;29;20034;-79
2024/03/20 08:43:27;;;;;;;4.30;1.35;;;16.50;75.20;;;;;;4891441;29;20695;-82
2024/03/20 08:46:14;;;;;;;2.75;1.30;;;16.60;75.20;;;;;;4887844;29;20067;-81
2024/03/20 08:48:59;;;;;;;2.65;1.27;;;16.70;75.20;;;;;;4887480;29;20079;-80
2024/03/20 08:51:43;;;;;;;3.40;1.75;;;16.80;75.20;;;;;;4907700;29;20040;-85
2024/03/20 08:54:28;;;;;;;3.28;1.70;;;16.90;75.20;;;;;;4897095;29;20031;-79
2024/03/20 08:57:13;;;;;;;2.45;1.27;;;16.90;75.00;;;;;;4913331;29;20055;-83
2024/03/20 09:00:01;;;;;;;4.38;1.60;;;17.00;74.90;;;;;;4898462;29;20093;-79
2024/03/20 09:02:45;;;;;;;2.78;1.95;;;17.10;74.90;;;;;;4908925;29;20224;-85
2024/03/20 09:05:31;;;;;;;5.22;1.10;;;17.20;74.90;;;;;;4914925;29;20152;-82
2024/03/20 09:08:16;;;;;;;2.85;1.20;;;17.20;74.70;;;;;;4921500;29;20039;-82
2024/03/20 09:11:01;;;;;;;3.03;1.25;;;17.30;74.70;;;;;;4902171;29;20045;-84
2024/03/20 09:13:48;;;;;;;1.60;1.08;;;17.40;74.70;;;;;;4910982;29;20040;-79
2024/03/20 09:16:34;;;;;;;3.40;1.30;;;17.40;74.50;;;;;;4892929;29;20036;-79
2024/03/20 09:19:18;;;;;;;2.42;1.13;;;17.50;74.50;;;;;;4886718;29;20073;-79
2024/03/20 09:22:04;;;;;;;2.95;1.20;;;17.50;74.30;;;;;;4887471;29;20107;-79
2024/03/20 09:24:51;;;;;;;3.28;1.58;;;17.60;74.30;;;;;;4884383;29;20035;-85
2024/03/20 09:27:36;;;;;;;1.92;1.20;;;17.70;74.20;;;;;;4884653;29;20071;-79
2024/03/20 09:30:21;;;;;;;2.33;1.00;;;17.80;74.20;;;;;;4883973;29;20108;-80
2024/03/20 09:33:06;;;;;;;1.90;1.00;;;17.90;74.10;;;;;;4892153;29;20043;-78
2024/03/20 09:35:53;;;;;;;2.22;1.30;;;18.00;73.90;;;;;;4898814;29;20152;-81
2024/03/20 09:38:40;;;;;;;4.90;1.60;;;18.10;73.90;;;;;;4897292;29;20075;-79
2024/03/20 09:41:26;;;;;;;2.40;1.50;;;18.20;73.70;;;;;;4888861;29;20591;-80
2024/03/20 09:44:13;;;;;;;5.53;1.30;;;18.20;73.50;;;;;;4890686;29;20043;-78
2024/03/20 09:47:00;;;;;;;2.55;1.25;;;18.30;73.40;;;;;;4890892;29;20446;-80
2024/03/20 09:49:46;;;;;;;4.75;1.52;;;18.50;73.40;;;;;;4896033;29;20557;-80
2024/03/20 09:52:31;;;;;;;2.78;1.13;;;18.50;73.20;;;;;;4898392;29;20438;-84
2024/03/20 09:55:17;;;;;;;3.90;1.30;;;18.60;73.00;;;;;;4881661;29;20094;-80
2024/03/20 09:58:01;;;;;;;2.75;1.30;;;18.70;72.90;;;;;;4888578;29;20187;-80
2024/03/20 10:00:46;;;;;;;1.30;1.20;;;18.80;72.80;;;;;;4902939;29;20130;-79
2024/03/20 10:03:38;;;;;;;1.85;1.30;;;18.90;72.60;;;;;;4896847;29;20043;-81
2024/03/20 10:06:27;;;;;;;2.28;1.40;;;19.10;72.60;;;;;;4893677;29;20385;-80
2024/03/20 10:09:16;;;;;;;3.10;1.27;;;19.20;72.40;;;;;;4883960;29;20060;-80
2024/03/20 10:12:01;;;;;;;2.28;1.20;;;19.40;72.40;;;;;;4877573;29;20040;-81
2024/03/20 10:14:47;;;;;;;1.70;1.25;;;19.50;72.10;;;;;;4898117;29;20043;-81
2024/03/20 10:17:35;;;;;;;4.57;2.30;;;19.60;71.90;;;;;;4910965;29;20451;-81
2024/03/20 10:20:21;;;;;;;2.95;1.40;;;19.70;71.70;;;;;;4913676;28;20449;-79
2024/03/20 10:23:06;;;;;;;2.33;1.38;;;19.90;71.60;;;;;;4873810;29;20407;-80
2024/03/20 10:25:51;;;;;;;2.70;1.25;;;20.10;71.60;;;;;;4891002;29;20039;-81
2024/03/20 10:28:40;;;;;;;1.70;1.20;;;20.20;71.30;;;;;;4881753;29;20175;-80
2024/03/20 10:31:26;;;;;;;3.80;2.00;;;20.30;71.00;;;;;;4903667;29;20138;-78
2024/03/20 10:34:14;;;;;;;1.90;1.40;;;20.40;70.70;;;;;;4893853;29;20521;-79
2024/03/20 10:37:03;;;;;;;3.22;1.35;;;20.50;70.30;;;;;;4885038;29;20040;-80
2024/03/20 10:39:48;;;;;;;3.60;1.88;;;20.70;70.30;;;;;;4886342;29;20031;-81
2024/03/20 10:42:35;;;;;;;1.13;0.93;;;20.70;70.00;;;;;;4905019;29;20077;-83
2024/03/20 10:45:25;;;;;;;2.92;1.35;;;20.80;69.80;;;;;;4901699;29;20044;-81
2024/03/20 10:48:15;;;;;;;1.70;1.33;;;20.80;69.50;;;;;;4886116;29;20052;-80
2024/03/20 10:51:03;;;;;;;2.17;1.30;;;20.80;69.30;;;;;;4904947;29;20040;-81
2024/03/20 10:53:57;;;;;;;1.88;1.25;;;20.80;69.10;;;;;;4876922;29;20071;-78
2024/03/20 10:56:46;;;;;;;2.45;1.50;;;20.90;69.00;;;;;;4909563;29;20116;-82
2024/03/20 10:59:34;;;;;;;2.28;1.73;;;20.90;68.90;;;;;;4888887;29;20162;-82
2024/03/20 11:02:24;;;;;;;3.00;1.45;;;20.90;68.70;;;;;;4904619;29;20040;-81
2024/03/20 11:05:48;;;;;;;1.83;1.38;;;20.90;68.40;;;;;;4898017;29;20098;-81
2024/03/20 11:08:53;;;;;;;2.25;1.52;;;20.90;68.00;;;;;;4879741;29;20085;-80
2024/03/20 11:11:41;;;;;;;3.00;1.58;;;21.00;68.20;;;;;;4853701;29;20266;-81
2024/03/20 11:14:33;;;;;;;2.72;1.80;;;21.00;68.30;;;;;;4890098;29;20143;-80
2024/03/20 11:17:21;;;;;;;2.65;1.83;;;20.90;68.00;;;;;;4890334;29;20044;-79
2024/03/20 11:20:26;;;;;;;2.75;1.73;;;20.90;68.00;;;;;;4882650;29;20513;-81
2024/03/20 11:23:25;;;;;;;3.42;1.65;;;20.90;67.90;;;;;;4890749;29;20069;-79
2024/03/20 11:26:09;;;;;;;3.53;2.00;;;20.90;67.80;;;;;;4905371;29;20065;-85
2024/03/20 11:28:57;;;;;;;4.13;1.38;;;20.80;67.70;;;;;;4886184;29;20039;-80
2024/03/20 11:31:42;;;;;;;3.30;1.80;;;20.80;67.70;;;;;;4900548;29;20043;-80
2024/03/20 11:34:27;;;;;;;2.67;2.20;;;20.80;67.60;;;;;;4890861;29;20076;-80
2024/03/20 11:37:17;;;;;;;3.08;1.67;;;20.70;67.40;;;;;;4884878;29;20103;-83
2024/03/20 11:40:02;;;;;;;1.88;1.45;;;20.70;67.40;;;;;;4891587;29;20039;-81
2024/03/20 11:42:50;;;;;;;3.15;1.83;;;20.70;67.40;;;;;;4882451;29;20347;-82
2024/03/20 11:45:36;;;;;;;3.30;2.00;;;20.70;67.40;;;;;;4878399;29;20454;-82
2024/03/20 11:48:21;;;;;;;2.80;1.80;;;20.80;67.50;;;;;;4903183;29;20491;-80
2024/03/20 11:51:11;;;;;;;2.05;1.58;;;20.80;67.40;;;;;;4887188;29;20747;-82
2024/03/20 11:53:59;;;;;;;2.85;1.92;;;20.90;67.40;;;;;;4878390;29;20104;-80
2024/03/20 11:56:47;;;;;;;2.88;1.60;;;20.90;67.20;;;;;;4890761;29;20083;-81
2024/03/20 11:59:32;;;;;;;3.13;1.38;;;21.00;67.20;;;;;;4892215;29;20072;-80
2024/03/20 12:02:25;;;;;;;3.20;1.80;;;21.00;67.10;;;;;;4884731;29;20059;-80
2024/03/20 12:05:11;;;;;;;;;;;21.10;67.10;;;;;;4890702;29;20100;-80
2024/03/20 12:08:00;;;;;;;2.20;1.52;;;21.10;67.10;;;;;;4889621;29;20571;-83
2024/03/20 12:10:47;;;;;;;2.60;1.90;;;21.20;67.20;;;;;;4897227;29;20056;-87
2024/03/20 12:13:32;;;;;;;4.68;2.65;;;21.20;67.00;;;;;;4881974;29;20047;-85
2024/03/20 12:16:16;;;;;;;4.38;2.15;;;21.20;66.90;;;;;;4890700;29;20052;-83
2024/03/20 12:19:10;;;;;;;3.95;2.30;;;21.20;66.70;;;;;;4893805;29;20038;-82
2024/03/20 12:21:58;;;;;;;3.03;2.30;;;21.30;66.70;;;;;;4891968;29;20044;-79
2024/03/20 12:24:44;;;;;;;2.47;2.00;;;21.40;66.60;;;;;;4880484;29;20111;-87
2024/03/20 12:27:29;;;;;;;2.00;1.63;;;21.50;66.50;;;;;;4878995;29;20083;-80
2024/03/20 12:30:14;;;;;;;4.32;2.35;;;21.50;66.30;;;;;;4881998;29;20621;-81
2024/03/20 12:33:07;;;;;;;3.47;2.33;;;21.50;66.10;;;;;;4885902;29;20052;-78
2024/03/20 12:35:52;;;;;;;2.45;1.52;;;21.60;66.20;;;;;;4879979;29;20234;-79
2024/03/20 12:38:37;;;;;;;4.10;1.95;;;21.60;66.10;;;;;;4882982;29;20120;-79
2024/03/20 12:41:22;;;;;;;2.70;1.70;;;21.70;66.10;;;;;;4893957;29;20540;-79
2024/03/20 12:44:10;;;;;;;3.03;1.63;;;21.70;65.90;;;;;;4873346;29;20047;-78
2024/03/20 12:46:56;;;;;;;4.03;1.70;;;21.80;66.00;;;;;;4894590;29;20044;-80
2024/03/20 12:49:42;;;;;;;3.13;1.50;;;21.80;65.80;;;;;;4894704;29;20128;-81
2024/03/20 12:52:29;;;;;;;4.18;2.00;;;21.80;65.70;;;;;;4881915;29;20092;-81
2024/03/20 12:55:14;;;;;;;2.60;1.73;;;21.90;65.80;;;;;;4883333;29;20402;-80
2024/03/20 12:58:06;;;;;;;2.97;1.52;;;21.80;65.60;;;;;;4862765;29;20103;-82
2024/03/20 13:00:52;;;;;;;1.70;1.20;;;21.90;65.70;;;;;;4884270;29;20127;-80
2024/03/20 13:03:40;;;;;;;1.60;1.30;;;21.90;65.50;;;;;;4897233;29;20059;-79
2024/03/20 13:06:25;;;;;;;3.15;1.70;;;21.90;65.50;;;;;;4901357;29;20521;-79
2024/03/20 13:09:10;;;;;;;2.35;1.80;;;21.90;65.40;;;;;;4880366;29;20109;-80
2024/03/20 13:12:23;;;;;;;3.40;1.42;;;21.80;65.30;;;;;;4892684;29;20170;-81
2024/03/20 13:15:40;;;;;;;2.15;1.95;;;21.70;65.10;;;;;;4899715;29;20234;-81
2024/03/20 13:18:40;;;;;;;1.80;1.33;;;21.80;65.30;;;;;;4903793;29;20039;-79
2024/03/20 13:21:28;;;;;;;1.50;1.30;;;21.70;65.20;;;;;;4891740;28;20051;-79
2024/03/20 13:24:13;;;;;;;1.98;1.20;;;21.60;65.00;;;;;;4877598;29;20056;-80
2024/03/20 13:27:01;;;;;;;1.98;1.02;;;21.60;65.10;;;;;;4899017;29;20041;-80
2024/03/20 13:29:47;;;;;;;3.83;1.92;;;21.50;64.90;;;;;;4872205;29;20134;-79
2024/03/20 13:32:34;;;;;;;1.38;0.98;;;21.50;65.00;;;;;;4863422;29;20043;-87
2024/03/20 13:35:19;;;;;;;1.00;0.90;;;21.50;65.10;;;;;;4898557;29;20170;-83
2024/03/20 13:38:09;;;;;;;2.65;1.20;;;21.50;65.10;;;;;;4872967;29;20193;-82
2024/03/20 13:43:53;;;;;;;1.73;1.00;;;21.60;65.00;;;;;;4892863;29;20660;-81
2024/03/20 13:46:38;;;;;;;2.65;1.13;;;21.70;65.00;;;;;;4882106;29;20080;-80
2024/03/20 13:49:22;;;;;;;2.10;1.20;;;21.80;64.90;;;;;;4881912;29;20139;-81
2024/03/20 13:52:13;;;;;;;1.48;0.80;;;21.90;64.90;;;;;;4883539;29;20051;-79
2024/03/20 13:54:58;;;;;;;2.55;0.90;;;21.90;64.60;;;;;;4880890;29;20116;-80
2024/03/20 13:57:44;;;;;;;2.30;0.90;;;22.00;64.70;;;;;;4893572;29;20055;-80
2024/03/20 14:00:30;;;;;;;1.05;0.80;;;22.00;64.60;;;;;;4898710;29;20056;-79
2024/03/20 14:03:16;;;;;;;1.73;1.08;;;22.00;64.60;;;;;;4892486;29;20092;-79
2024/03/20 14:06:03;;;;;;;1.23;0.93;;;22.00;64.50;;;;;;4875761;29;21133;-83
2024/03/20 14:08:49;;;;;;;1.88;1.23;;;22.00;64.40;;;;;;4871813;29;20423;-79
2024/03/20 14:11:37;;;;;;;1.75;1.02;;;22.00;64.30;;;;;;4882349;29;20059;-84
2024/03/20 14:14:22;;;;;;;2.03;0.80;;;22.00;64.30;;;;;;4883014;29;20451;-80
2024/03/20 14:17:18;;;;;;;1.45;0.77;;;22.00;64.30;;;;;;4900155;29;20107;-79
2024/03/20 14:20:03;;;;;;;2.25;1.00;;;21.90;64.10;;;;;;4878151;29;20092;-80
2024/03/20 14:22:51;;;;;;;1.00;0.80;;;21.90;64.10;;;;;;4884009;29;20073;-78
2024/03/20 14:25:36;;;;;;;1.45;1.00;;;21.90;64.10;;;;;;4900948;28;20048;-86
2024/03/20 14:28:20;;;;;;;2.10;1.00;;;21.80;64.00;;;;;;4881168;29;20044;-87
2024/03/20 14:31:12;;;;;;;1.65;0.85;;;21.80;64.00;;;;;;4892156;29;20538;-83